18:54
Airports
History
Links
Donate
Help keep this website running!
PayPal
Bitcoin
This page is community maintained. The information is intended for PC simulator navigation or reference.
Always use approved charts for navigation.
LE84
JAYENA
JAYENA (LE84)
Arenas del Rey, Andalucía, Spain (18126)
(U)
Lat/Lng:36° 55' 50.4" N / 3° 50' 7.37" W
36.930668 / -3.83538
Elevation:3654'ft / 1114mMSL
ID / ICAO:LE84
Runways:1
Longest:09-27
Asphalt 1,127m / 3,696ft
Nearby Weather18:30 GMT 2017-09-19
Nearby weather at LEGR, Granada located 18.1 nautical miles from LE84
Altimeter: 30.12
Visibility: 6.2 statute miles
Wind: 7 knots (from 280°)
Temp: 26°c / 79°f
Humidity: 27.8%

METAR: LEGR 191830Z 28007KT CAVOK 26/06 Q1020

(Powered by phpweather)
Nearby VORs <50NM
Nearby NDBs
Runway 09 / 27
Dimensions:1126.5 x 9.1m 3696' x 30'ft
Surface:Asphalt
Runway 09 [A]Runway 27 [B]
Heading:085°TH 265°TH
Lat:
Lng:
36° 55' 48.85"N
3° 50' 30.04"W
36° 55' 51.96"N
3° 49' 44.69"W
User Notes and Comments
36° 55' 50.4" N / 3° 50' 7.37" W
Distance To
Airport ID:
Nearby Airports
(C) Granada Armilla 17.8 NM
LEGA NE 38°
(C) Granada 18.1 NM
LEGR ( WX ) N 10°
(C) Leoni Benabu 18.8 NM
LEAX WSW 241°
(C) Malaga 40.8 NM
LEMG ( WX ) WSW 244°
(C) Almeria 81.2 NM
LEAM ( WX ) E 94°
(C) Cordoba 84.0 NM
LEBA ( WX ) NW 318°
(C) MORON AB 99.6 NM
LEMO ( WX ) W 279°
VFR Chart
Flight Planning at SkyVector.com